Ocean Beaut — WDD7485 — position and weather

sailwx.info

Track history (hours):
 
Tides and Currents Weather Stations Pressure Air Temp Water Temp Dewpoint Dewpoint Depression Visibility Wind Speed Wind Dir Waves Ship Positions

Ocean Beaut

Owner: John Moreland Fishing Inc., Astoria, OR. More information available from US FCC via Universal Licensing System.

Last reported at 2016-Jun-28 04:33 UTC. Time now 2016-Jun-28 06:06 UTC.
Position N 46°25' W 124°25'.

Length 20 m.

Type: Fishing. MMSI: 367187080.

Date/timePositionNaut miles runAvg speedWind from/ knotsBaromVisibWave heightAir tempDewpointWater temp
2016-Jun-28 04:33N 46°25' W 124°25'2 2.4
2016-Jun-28 03:33N 46°23' W 124°24'2 2.5
2016-Jun-28 02:33N 46°20' W 124°23'3 2.5
2016-Jun-28 01:33N 46°19' W 124°20'3 3.1
2016-Jun-28 00:33N 46°17' W 124°17'7 7.3
2016-Jun-27 23:33N 46°15' W 124°06'6 6.2
2016-Jun-27 22:33N 46°13' W 123°58'5 4.8
2016-Jun-27 21:33N 46°11' W 123°52'0 0.0
2016-Jun-27 20:33N 46°11' W 123°51'2 2.2
2016-Jun-27 19:28N 46°12' W 123°48'0 0.0
2016-Jun-27 18:33N 46°12' W 123°48'0 0.0
2016-Jun-27 17:33N 46°12' W 123°48'0 0.0
2016-Jun-27 16:31N 46°12' W 123°48'0 0.0
2016-Jun-27 15:31N 46°12' W 123°48'0 0.0
2016-Jun-27 14:31N 46°12' W 123°48'0 0.0
2016-Jun-27 13:31N 46°12' W 123°48'0 0.0
2016-Jun-27 12:31N 46°12' W 123°48'0 0.0
2016-Jun-27 11:31N 46°12' W 123°48'0 0.0
2016-Jun-27 10:31N 46°12' W 123°48'0 0.0
2016-Jun-27 09:31N 46°12' W 123°48'0 0.0
2016-Jun-27 08:31N 46°12' W 123°48'0 0.0
2016-Jun-27 07:31N 46°12' W 123°48'0 0.0
2016-Jun-27 06:31N 46°12' W 123°48'0 0.0
2016-Jun-27 05:31N 46°12' W 123°48'0 0.0
2016-Jun-27 04:31N 46°12' W 123°48'0 0.0
2016-Jun-27 03:31N 46°12' W 123°48'0 0.0
2016-Jun-27 02:31N 46°12' W 123°48'0 0.0
2016-Jun-27 01:31N 46°12' W 123°48'0 0.0
2016-Jun-27 00:31N 46°12' W 123°48'0 0.0
2016-Jun-26 23:31N 46°12' W 123°48'0 0.0
2016-Jun-26 22:31N 46°12' W 123°48'0 0.0
2016-Jun-26 21:31N 46°12' W 123°48'0 0.0
2016-Jun-26 20:31N 46°12' W 123°48'0 0.0
2016-Jun-26 19:31N 46°12' W 123°48'0 0.0
2016-Jun-26 18:31N 46°12' W 123°48'0 0.0
2016-Jun-26 17:31N 46°12' W 123°48'0 0.0
2016-Jun-26 16:31N 46°12' W 123°48'0 0.0
2016-Jun-26 15:31N 46°12' W 123°48'0 0.0
2016-Jun-26 14:31N 46°12' W 123°48'0 0.0
2016-Jun-26 13:31N 46°12' W 123°48'0 0.0
2016-Jun-26 12:31N 46°12' W 123°48'0 0.0
2016-Jun-26 11:31N 46°12' W 123°48'0 0.0
2016-Jun-26 10:31N 46°12' W 123°48'0 0.0
2016-Jun-26 09:31N 46°12' W 123°48'0 0.0
2016-Jun-26 08:31N 46°12' W 123°48'0 0.0
2016-Jun-26 07:31N 46°12' W 123°48'0 0.0
2016-Jun-26 06:31N 46°12' W 123°48'0 0.0
2016-Jun-26 05:31N 46°12' W 123°48'0 0.0
2016-Jun-26 04:31N 46°12' W 123°48'0 0.0
2016-Jun-26 03:31N 46°12' W 123°48'0 0.0
2016-Jun-26 02:31N 46°12' W 123°48'0 0.0
2016-Jun-26 01:31N 46°12' W 123°48'0 0.0
2016-Jun-26 00:31N 46°12' W 123°48'0 0.0
2016-Jun-25 23:31N 46°12' W 123°48'0 0.0
2016-Jun-25 22:31N 46°12' W 123°48'0 0.0
2016-Jun-25 21:31N 46°12' W 123°48'0 0.0
2016-Jun-25 20:31N 46°12' W 123°48'0 0.0
2016-Jun-25 19:31N 46°12' W 123°48'0 0.0
2016-Jun-25 18:31N 46°12' W 123°48'0 0.0
2016-Jun-25 17:31N 46°12' W 123°48'0 0.0
2016-Jun-25 16:31N 46°12' W 123°48'0 0.0
2016-Jun-25 15:28N 46°12' W 123°48'0 0.0
2016-Jun-25 14:31N 46°12' W 123°48'0 0.0
2016-Jun-25 13:31N 46°12' W 123°48'0 0.0
2016-Jun-25 12:31N 46°12' W 123°48'0 0.0
2016-Jun-25 11:31N 46°12' W 123°48'0 0.0
2016-Jun-25 10:31N 46°12' W 123°48'0 0.0
2016-Jun-25 09:31N 46°12' W 123°48'0 0.0
2016-Jun-25 08:31N 46°12' W 123°48'0 0.0
2016-Jun-25 07:31N 46°12' W 123°48'0 0.0
2016-Jun-25 06:31N 46°12' W 123°48'0 0.0
2016-Jun-25 05:31N 46°12' W 123°48'0 0.0
2016-Jun-25 04:31N 46°12' W 123°48'0 0.0
2016-Jun-25 03:31N 46°12' W 123°48'0 0.0
2016-Jun-25 02:31N 46°12' W 123°48'0 0.0
2016-Jun-25 01:31N 46°12' W 123°48'0 0.0
2016-Jun-25 00:31N 46°12' W 123°48'0 0.0
2016-Jun-24 23:31N 46°12' W 123°48'0 0.0
2016-Jun-24 22:31N 46°12' W 123°48'0 0.0
2016-Jun-24 21:31N 46°12' W 123°48'0 0.0
2016-Jun-24 20:31N 46°12' W 123°48'0 0.0
2016-Jun-24 19:28N 46°12' W 123°48'0 0.0
2016-Jun-24 18:31N 46°12' W 123°48'0 0.0
2016-Jun-24 17:31N 46°12' W 123°48'0 0.0
2016-Jun-24 16:31N 46°12' W 123°48'0 0.0
2016-Jun-24 15:31N 46°12' W 123°48'0 0.0
2016-Jun-24 14:31N 46°12' W 123°48'0 0.0
2016-Jun-24 13:31N 46°12' W 123°48'0 0.0
2016-Jun-24 12:31N 46°12' W 123°48'0 0.0
2016-Jun-24 11:31N 46°12' W 123°48'0 0.0
2016-Jun-24 10:31N 46°12' W 123°48'0 0.0
2016-Jun-24 09:31N 46°12' W 123°48'0 0.0
2016-Jun-24 08:31N 46°12' W 123°48'0 0.0
2016-Jun-24 07:31N 46°12' W 123°48'0 0.0
2016-Jun-24 04:32N 46°12' W 123°48'0 0.0
2016-Jun-24 03:31N 46°12' W 123°48'0 0.0
2016-Jun-24 02:31N 46°12' W 123°48'0 0.0
2016-Jun-24 01:31N 46°12' W 123°48'0 0.0
2016-Jun-24 00:31N 46°12' W 123°48'0 0.0
2016-Jun-23 23:31N 46°12' W 123°48'0 0.0
2016-Jun-23 22:31N 46°12' W 123°48'0 0.0
2016-Jun-23 21:31N 46°12' W 123°48'0 0.0
2016-Jun-23 20:29N 46°12' W 123°48'0 0.0
2016-Jun-23 19:31N 46°12' W 123°48'0 0.3
2016-Jun-23 18:33N 46°12' W 123°49'1 1.4
2016-Jun-23 17:33N 46°12' W 123°51'1 0.7
2016-Jun-23 16:33N 46°11' W 123°51'0 0.0
2016-Jun-23 15:33N 46°11' W 123°51'0 0.0
2016-Jun-23 14:33N 46°11' W 123°51'0 0.0
2016-Jun-23 13:33N 46°11' W 123°51'0 0.0
2016-Jun-23 12:33N 46°11' W 123°51'0 0.0
2016-Jun-23 11:33N 46°11' W 123°51'0 0.2
2016-Jun-23 10:33N 46°11' W 123°52'0 0.0
2016-Jun-23 09:33N 46°11' W 123°52'0 0.0
2016-Jun-23 08:33N 46°11' W 123°52'0 0.0
2016-Jun-23 07:33N 46°11' W 123°52'0 0.0
2016-Jun-23 05:33N 46°11' W 123°52'0 0.0
2016-Jun-23 04:33N 46°11' W 123°52'0 0.0
2016-Jun-23 03:33N 46°11' W 123°52'0 0.0
2016-Jun-23 02:33N 46°11' W 123°52'0 0.0
2016-Jun-23 01:33N 46°11' W 123°52'0 0.0
2016-Jun-23 00:33N 46°11' W 123°52'0 0.0
2016-Jun-22 23:33N 46°11' W 123°52'0 0.0
2016-Jun-22 22:33N 46°11' W 123°52'6 6.2
2016-Jun-22 21:33N 46°14' W 123°60'8 7.6
2016-Jun-22 20:33N 46°14' W 124°11'6 6.4
2016-Jun-22 19:33N 46°19' W 124°18'4 3.5
2016-Jun-22 18:33N 46°20' W 124°22'3 2.5
2016-Jun-22 17:33N 46°22' W 124°24'3 2.5
2016-Jun-22 16:33N 46°25' W 124°24'2 1.9
2016-Jun-22 15:33N 46°23' W 124°24'1 1.3
2016-Jun-22 14:33N 46°24' W 124°24'2 2.5
2016-Jun-22 13:33N 46°27' W 124°25'2 2.4
2016-Jun-22 12:33N 46°29' W 124°25'3 2.6
2016-Jun-22 11:31N 46°32' W 124°25'1 1.0
2016-Jun-22 10:32N 46°31' W 124°26'1 0.9
2016-Jun-22 09:33N 46°30' W 124°26'1 0.9
2016-Jun-22 08:33N 46°31' W 124°26'1 1.2
2016-Jun-22 07:33N 46°32' W 124°25'0 0.4
2016-Jun-22 06:33N 46°33' W 124°26'5 5.0
2016-Jun-22 05:33N 46°28' W 124°25'3 2.5
2016-Jun-22 04:31N 46°25' W 124°24'2 2.4
2016-Jun-22 03:33N 46°23' W 124°24'2 2.3
2016-Jun-22 02:33N 46°21' W 124°23'2 2.3
2016-Jun-22 01:33N 46°19' W 124°21'1 1.0
2016-Jun-22 00:33N 46°20' W 124°22'2 2.1
2016-Jun-21 23:33N 46°21' W 124°24'2 2.4
2016-Jun-21 22:33N 46°24' W 124°24'2 2.4
2016-Jun-21 21:34N 46°26' W 124°25'1 1.1
2016-Jun-21 20:33N 46°27' W 124°25'2 2.2
2016-Jun-21 19:33N 46°25' W 124°25'2 2.4
2016-Jun-21 18:33N 46°23' W 124°25'2 2.3
2016-Jun-21 17:33N 46°20' W 124°24'3 2.5
2016-Jun-21 16:32N 46°19' W 124°21'3 3.5
2016-Jun-21 15:33N 46°21' W 124°25'2 2.4
2016-Jun-21 14:32N 46°24' W 124°25'2 2.4
2016-Jun-21 13:33N 46°26' W 124°25'3 2.7
2016-Jun-21 12:33N 46°29' W 124°25'5 5.0
2016-Jun-21 11:33N 46°34' W 124°24'1 0.9
2016-Jun-21 10:34N 46°35' W 124°25'2 1.5
2016-Jun-21 09:33N 46°36' W 124°25'0 0.3
2016-Jun-21 08:33N 46°36' W 124°25'2 2.3
2016-Jun-21 07:33N 46°34' W 124°25'2 2.4
2016-Jun-21 06:33N 46°32' W 124°25'5 2.6
2016-Jun-21 04:33N 46°26' W 124°24'2 1.8
2016-Jun-21 03:31N 46°25' W 124°25'2 2.4
2016-Jun-21 02:33N 46°22' W 124°24'2 2.4
2016-Jun-21 01:34N 46°20' W 124°23'3 2.5
2016-Jun-21 00:34N 46°18' W 124°21'3 2.5
2016-Jun-20 23:33N 46°20' W 124°23'3 2.6
2016-Jun-20 22:32N 46°22' W 124°25'2 2.5
2016-Jun-20 21:33N 46°25' W 124°25'3 2.7
2016-Jun-20 20:33N 46°28' W 124°25'1 1.2
2016-Jun-20 19:33N 46°26' W 124°25'2 2.4
2016-Jun-20 18:33N 46°24' W 124°24'2 2.4
2016-Jun-20 17:33N 46°22' W 124°23'2 2.4
2016-Jun-20 16:33N 46°20' W 124°21'2 1.9
2016-Jun-20 15:34N 46°18' W 124°20'1 1.4
2016-Jun-20 14:34N 46°19' W 124°22'2 2.4
2016-Jun-20 13:33N 46°21' W 124°24'2 2.4
2016-Jun-20 12:33N 46°23' W 124°25'2 2.4
2016-Jun-20 11:33N 46°26' W 124°25'4 3.5
2016-Jun-20 10:33N 46°29' W 124°26'3 2.6
2016-Jun-20 09:33N 46°32' W 124°27'1 1.0
2016-Jun-20 08:33N 46°33' W 124°26'1 1.0
2016-Jun-20 07:33N 46°34' W 124°25'1 0.9
2016-Jun-20 06:34N 46°33' W 124°25'3 2.5
2016-Jun-20 05:34N 46°30' W 124°25'2 2.4
2016-Jun-20 04:33N 46°28' W 124°25'2 2.3
2016-Jun-20 03:33N 46°26' W 124°25'1 1.0
2016-Jun-20 02:33N 46°25' W 124°25'2 2.3
2016-Jun-20 01:32N 46°22' W 124°24'2 2.3
2016-Jun-20 00:33N 46°20' W 124°23'2 2.3
2016-Jun-19 23:33N 46°19' W 124°20'1 1.5
2016-Jun-19 22:33N 46°18' W 124°19'7 7.1
2016-Jun-19 21:33N 46°14' W 124°10'7 6.9
2016-Jun-19 20:34N 46°15' W 124°00'7 6.7
2016-Jun-19 19:33N 46°11' W 123°52'0 0.4
2016-Jun-19 18:33N 46°11' W 123°51'2 2.3
2016-Jun-19 17:33N 46°12' W 123°48'0 0.1
2016-Jun-19 16:33N 46°12' W 123°48'0 0.0
2016-Jun-19 15:33N 46°12' W 123°48'0 0.0
2016-Jun-19 14:33N 46°12' W 123°48'0 0.0
2016-Jun-19 13:33N 46°12' W 123°48'0 0.0
2016-Jun-19 12:33N 46°12' W 123°48'0 0.0
2016-Jun-19 11:33N 46°12' W 123°48'0 0.0
2016-Jun-19 10:33N 46°12' W 123°48'0 0.0
2016-Jun-19 09:33N 46°12' W 123°48'0 0.0
2016-Jun-19 08:33N 46°12' W 123°48'0 0.0
2016-Jun-19 07:33N 46°12' W 123°48'0 0.0
2016-Jun-19 06:33N 46°12' W 123°48'0 0.0
2016-Jun-19 05:30N 46°12' W 123°48'0 0.0
2016-Jun-19 04:30N 46°12' W 123°48'0 0.0
2016-Jun-19 03:33N 46°12' W 123°48'0 0.0
2016-Jun-19 02:33N 46°12' W 123°48'0 0.0
2016-Jun-19 01:30N 46°12' W 123°48'0 0.0
2016-Jun-19 00:33N 46°12' W 123°48'0 0.0
2016-Jun-18 23:33N 46°12' W 123°48'0 0.0
2016-Jun-18 22:33N 46°12' W 123°48'0 0.0
2016-Jun-18 21:33N 46°12' W 123°48'0 0.0
2016-Jun-18 20:33N 46°12' W 123°48'0 0.0
2016-Jun-18 19:33N 46°12' W 123°48'0 0.0
2016-Jun-18 18:33N 46°12' W 123°48'0 0.0
2016-Jun-18 17:33N 46°12' W 123°48'0 0.0
2016-Jun-18 16:33N 46°12' W 123°48'0 0.0
2016-Jun-18 15:33N 46°12' W 123°48'0 0.0
2016-Jun-18 14:33N 46°12' W 123°48'0 0.0
2016-Jun-18 13:30N 46°12' W 123°48'0 0.0
2016-Jun-18 12:30N 46°12' W 123°48'0 0.0
2016-Jun-18 11:33N 46°12' W 123°48'0 0.0
2016-Jun-18 10:33N 46°12' W 123°48'0 0.0
2016-Jun-18 09:33N 46°12' W 123°48'0 0.0
2016-Jun-18 08:33N 46°12' W 123°48'0 0.0
2016-Jun-18 07:33N 46°12' W 123°48'0 0.0
2016-Jun-18 06:33N 46°12' W 123°48'0 0.0
2016-Jun-18 05:33N 46°12' W 123°48'0 0.0
2016-Jun-18 04:33N 46°12' W 123°48'  
Track history (hours):
 
Tides and Currents Weather Stations Pressure Air Temp Water Temp Dewpoint Dewpoint Depression Visibility Wind Speed Wind Dir Waves Ship Positions

Ocean Beaut

Owner: John Moreland Fishing Inc., Astoria, OR. More information available from US FCC via Universal Licensing System.

Last reported at 2016-Jun-28 04:33 UTC. Time now 2016-Jun-28 06:06 UTC.
Position N 46°25' W 124°25'.

Length 20 m.

Type: Fishing. MMSI: 367187080.

Date/timePositionNaut miles runAvg speedWind from/ knotsBaromVisibWave heightAir tempDewpointWater temp
2016-Jun-28 04:33N 46°25' W 124°25'2 2.4
2016-Jun-28 03:33N 46°23' W 124°24'2 2.5
2016-Jun-28 02:33N 46°20' W 124°23'3 2.5
2016-Jun-28 01:33N 46°19' W 124°20'3 3.1
2016-Jun-28 00:33N 46°17' W 124°17'7 7.3
2016-Jun-27 23:33N 46°15' W 124°06'6 6.2
2016-Jun-27 22:33N 46°13' W 123°58'5 4.8
2016-Jun-27 21:33N 46°11' W 123°52'0 0.0
2016-Jun-27 20:33N 46°11' W 123°51'2 2.2
2016-Jun-27 19:28N 46°12' W 123°48'0 0.0
2016-Jun-27 18:33N 46°12' W 123°48'0 0.0
2016-Jun-27 17:33N 46°12' W 123°48'0 0.0
2016-Jun-27 16:31N 46°12' W 123°48'0 0.0
2016-Jun-27 15:31N 46°12' W 123°48'0 0.0
2016-Jun-27 14:31N 46°12' W 123°48'0 0.0
2016-Jun-27 13:31N 46°12' W 123°48'0 0.0
2016-Jun-27 12:31N 46°12' W 123°48'0 0.0
2016-Jun-27 11:31N 46°12' W 123°48'0 0.0
2016-Jun-27 10:31N 46°12' W 123°48'0 0.0
2016-Jun-27 09:31N 46°12' W 123°48'0 0.0
2016-Jun-27 08:31N 46°12' W 123°48'0 0.0
2016-Jun-27 07:31N 46°12' W 123°48'0 0.0
2016-Jun-27 06:31N 46°12' W 123°48'0 0.0
2016-Jun-27 05:31N 46°12' W 123°48'0 0.0
2016-Jun-27 04:31N 46°12' W 123°48'0 0.0
2016-Jun-27 03:31N 46°12' W 123°48'0 0.0
2016-Jun-27 02:31N 46°12' W 123°48'0 0.0
2016-Jun-27 01:31N 46°12' W 123°48'0 0.0
2016-Jun-27 00:31N 46°12' W 123°48'0 0.0
2016-Jun-26 23:31N 46°12' W 123°48'0 0.0
2016-Jun-26 22:31N 46°12' W 123°48'0 0.0
2016-Jun-26 21:31N 46°12' W 123°48'0 0.0
2016-Jun-26 20:31N 46°12' W 123°48'0 0.0
2016-Jun-26 19:31N 46°12' W 123°48'0 0.0
2016-Jun-26 18:31N 46°12' W 123°48'0 0.0
2016-Jun-26 17:31N 46°12' W 123°48'0 0.0
2016-Jun-26 16:31N 46°12' W 123°48'0 0.0
2016-Jun-26 15:31N 46°12' W 123°48'0 0.0
2016-Jun-26 14:31N 46°12' W 123°48'0 0.0
2016-Jun-26 13:31N 46°12' W 123°48'0 0.0
2016-Jun-26 12:31N 46°12' W 123°48'0 0.0
2016-Jun-26 11:31N 46°12' W 123°48'0 0.0
2016-Jun-26 10:31N 46°12' W 123°48'0 0.0
2016-Jun-26 09:31N 46°12' W 123°48'0 0.0
2016-Jun-26 08:31N 46°12' W 123°48'0 0.0
2016-Jun-26 07:31N 46°12' W 123°48'0 0.0
2016-Jun-26 06:31N 46°12' W 123°48'0 0.0
2016-Jun-26 05:31N 46°12' W 123°48'0 0.0
2016-Jun-26 04:31N 46°12' W 123°48'0 0.0
2016-Jun-26 03:31N 46°12' W 123°48'0 0.0
2016-Jun-26 02:31N 46°12' W 123°48'0 0.0
2016-Jun-26 01:31N 46°12' W 123°48'0 0.0
2016-Jun-26 00:31N 46°12' W 123°48'0 0.0
2016-Jun-25 23:31N 46°12' W 123°48'0 0.0
2016-Jun-25 22:31N 46°12' W 123°48'0 0.0
2016-Jun-25 21:31N 46°12' W 123°48'0 0.0
2016-Jun-25 20:31N 46°12' W 123°48'0 0.0
2016-Jun-25 19:31N 46°12' W 123°48'0 0.0
2016-Jun-25 18:31N 46°12' W 123°48'0 0.0
2016-Jun-25 17:31N 46°12' W 123°48'0 0.0
2016-Jun-25 16:31N 46°12' W 123°48'0 0.0
2016-Jun-25 15:28N 46°12' W 123°48'0 0.0
2016-Jun-25 14:31N 46°12' W 123°48'0 0.0
2016-Jun-25 13:31N 46°12' W 123°48'0 0.0
2016-Jun-25 12:31N 46°12' W 123°48'0 0.0
2016-Jun-25 11:31N 46°12' W 123°48'0 0.0
2016-Jun-25 10:31N 46°12' W 123°48'0 0.0
2016-Jun-25 09:31N 46°12' W 123°48'0 0.0
2016-Jun-25 08:31N 46°12' W 123°48'0 0.0
2016-Jun-25 07:31N 46°12' W 123°48'0 0.0
2016-Jun-25 06:31N 46°12' W 123°48'0 0.0
2016-Jun-25 05:31N 46°12' W 123°48'0 0.0
2016-Jun-25 04:31N 46°12' W 123°48'0 0.0
2016-Jun-25 03:31N 46°12' W 123°48'0 0.0
2016-Jun-25 02:31N 46°12' W 123°48'0 0.0
2016-Jun-25 01:31N 46°12' W 123°48'0 0.0
2016-Jun-25 00:31N 46°12' W 123°48'0 0.0
2016-Jun-24 23:31N 46°12' W 123°48'0 0.0
2016-Jun-24 22:31N 46°12' W 123°48'0 0.0
2016-Jun-24 21:31N 46°12' W 123°48'0 0.0
2016-Jun-24 20:31N 46°12' W 123°48'0 0.0
2016-Jun-24 19:28N 46°12' W 123°48'0 0.0
2016-Jun-24 18:31N 46°12' W 123°48'0 0.0
2016-Jun-24 17:31N 46°12' W 123°48'0 0.0
2016-Jun-24 16:31N 46°12' W 123°48'0 0.0
2016-Jun-24 15:31N 46°12' W 123°48'0 0.0
2016-Jun-24 14:31N 46°12' W 123°48'0 0.0
2016-Jun-24 13:31N 46°12' W 123°48'0 0.0
2016-Jun-24 12:31N 46°12' W 123°48'0 0.0
2016-Jun-24 11:31N 46°12' W 123°48'0 0.0
2016-Jun-24 10:31N 46°12' W 123°48'0 0.0
2016-Jun-24 09:31N 46°12' W 123°48'0 0.0
2016-Jun-24 08:31N 46°12' W 123°48'0 0.0
2016-Jun-24 07:31N 46°12' W 123°48'0 0.0
2016-Jun-24 04:32N 46°12' W 123°48'0 0.0
2016-Jun-24 03:31N 46°12' W 123°48'0 0.0
2016-Jun-24 02:31N 46°12' W 123°48'0 0.0
2016-Jun-24 01:31N 46°12' W 123°48'0 0.0
2016-Jun-24 00:31N 46°12' W 123°48'0 0.0
2016-Jun-23 23:31N 46°12' W 123°48'0 0.0
2016-Jun-23 22:31N 46°12' W 123°48'0 0.0
2016-Jun-23 21:31N 46°12' W 123°48'0 0.0
2016-Jun-23 20:29N 46°12' W 123°48'0 0.0
2016-Jun-23 19:31N 46°12' W 123°48'0 0.3
2016-Jun-23 18:33N 46°12' W 123°49'1 1.4
2016-Jun-23 17:33N 46°12' W 123°51'1 0.7
2016-Jun-23 16:33N 46°11' W 123°51'0 0.0
2016-Jun-23 15:33N 46°11' W 123°51'0 0.0
2016-Jun-23 14:33N 46°11' W 123°51'0 0.0
2016-Jun-23 13:33N 46°11' W 123°51'0 0.0
2016-Jun-23 12:33N 46°11' W 123°51'0 0.0
2016-Jun-23 11:33N 46°11' W 123°51'0 0.2
2016-Jun-23 10:33N 46°11' W 123°52'0 0.0
2016-Jun-23 09:33N 46°11' W 123°52'0 0.0
2016-Jun-23 08:33N 46°11' W 123°52'0 0.0
2016-Jun-23 07:33N 46°11' W 123°52'0 0.0
2016-Jun-23 05:33N 46°11' W 123°52'0 0.0
2016-Jun-23 04:33N 46°11' W 123°52'0 0.0
2016-Jun-23 03:33N 46°11' W 123°52'0 0.0
2016-Jun-23 02:33N 46°11' W 123°52'0 0.0
2016-Jun-23 01:33N 46°11' W 123°52'0 0.0
2016-Jun-23 00:33N 46°11' W 123°52'0 0.0
2016-Jun-22 23:33N 46°11' W 123°52'0 0.0
2016-Jun-22 22:33N 46°11' W 123°52'6 6.2
2016-Jun-22 21:33N 46°14' W 123°60'8 7.6
2016-Jun-22 20:33N 46°14' W 124°11'6 6.4
2016-Jun-22 19:33N 46°19' W 124°18'4 3.5
2016-Jun-22 18:33N 46°20' W 124°22'3 2.5
2016-Jun-22 17:33N 46°22' W 124°24'3 2.5
2016-Jun-22 16:33N 46°25' W 124°24'2 1.9
2016-Jun-22 15:33N 46°23' W 124°24'1 1.3
2016-Jun-22 14:33N 46°24' W 124°24'2 2.5
2016-Jun-22 13:33N 46°27' W 124°25'2 2.4
2016-Jun-22 12:33N 46°29' W 124°25'3 2.6
2016-Jun-22 11:31N 46°32' W 124°25'1 1.0
2016-Jun-22 10:32N 46°31' W 124°26'1 0.9
2016-Jun-22 09:33N 46°30' W 124°26'1 0.9
2016-Jun-22 08:33N 46°31' W 124°26'1 1.2
2016-Jun-22 07:33N 46°32' W 124°25'0 0.4
2016-Jun-22 06:33N 46°33' W 124°26'5 5.0
2016-Jun-22 05:33N 46°28' W 124°25'3 2.5
2016-Jun-22 04:31N 46°25' W 124°24'2 2.4
2016-Jun-22 03:33N 46°23' W 124°24'2 2.3
2016-Jun-22 02:33N 46°21' W 124°23'2 2.3
2016-Jun-22 01:33N 46°19' W 124°21'1 1.0
2016-Jun-22 00:33N 46°20' W 124°22'2 2.1
2016-Jun-21 23:33N 46°21' W 124°24'2 2.4
2016-Jun-21 22:33N 46°24' W 124°24'2 2.4
2016-Jun-21 21:34N 46°26' W 124°25'1 1.1
2016-Jun-21 20:33N 46°27' W 124°25'2 2.2
2016-Jun-21 19:33N 46°25' W 124°25'2 2.4
2016-Jun-21 18:33N 46°23' W 124°25'2 2.3
2016-Jun-21 17:33N 46°20' W 124°24'3 2.5
2016-Jun-21 16:32N 46°19' W 124°21'3 3.5
2016-Jun-21 15:33N 46°21' W 124°25'2 2.4
2016-Jun-21 14:32N 46°24' W 124°25'2 2.4
2016-Jun-21 13:33N 46°26' W 124°25'3 2.7
2016-Jun-21 12:33N 46°29' W 124°25'5 5.0
2016-Jun-21 11:33N 46°34' W 124°24'1 0.9
2016-Jun-21 10:34N 46°35' W 124°25'2 1.5
2016-Jun-21 09:33N 46°36' W 124°25'0 0.3
2016-Jun-21 08:33N 46°36' W 124°25'2 2.3
2016-Jun-21 07:33N 46°34' W 124°25'2 2.4
2016-Jun-21 06:33N 46°32' W 124°25'5 2.6
2016-Jun-21 04:33N 46°26' W 124°24'2 1.8
2016-Jun-21 03:31N 46°25' W 124°25'2 2.4
2016-Jun-21 02:33N 46°22' W 124°24'2 2.4
2016-Jun-21 01:34N 46°20' W 124°23'3 2.5
2016-Jun-21 00:34N 46°18' W 124°21'3 2.5
2016-Jun-20 23:33N 46°20' W 124°23'3 2.6
2016-Jun-20 22:32N 46°22' W 124°25'2 2.5
2016-Jun-20 21:33N 46°25' W 124°25'3 2.7
2016-Jun-20 20:33N 46°28' W 124°25'1 1.2
2016-Jun-20 19:33N 46°26' W 124°25'2 2.4
2016-Jun-20 18:33N 46°24' W 124°24'2 2.4
2016-Jun-20 17:33N 46°22' W 124°23'2 2.4
2016-Jun-20 16:33N 46°20' W 124°21'2 1.9
2016-Jun-20 15:34N 46°18' W 124°20'1 1.4
2016-Jun-20 14:34N 46°19' W 124°22'2 2.4
2016-Jun-20 13:33N 46°21' W 124°24'2 2.4
2016-Jun-20 12:33N 46°23' W 124°25'2 2.4
2016-Jun-20 11:33N 46°26' W 124°25'4 3.5
2016-Jun-20 10:33N 46°29' W 124°26'3 2.6
2016-Jun-20 09:33N 46°32' W 124°27'1 1.0
2016-Jun-20 08:33N 46°33' W 124°26'1 1.0
2016-Jun-20 07:33N 46°34' W 124°25'1 0.9
2016-Jun-20 06:34N 46°33' W 124°25'3 2.5
2016-Jun-20 05:34N 46°30' W 124°25'2 2.4
2016-Jun-20 04:33N 46°28' W 124°25'2 2.3
2016-Jun-20 03:33N 46°26' W 124°25'1 1.0
2016-Jun-20 02:33N 46°25' W 124°25'2 2.3
2016-Jun-20 01:32N 46°22' W 124°24'2 2.3
2016-Jun-20 00:33N 46°20' W 124°23'2 2.3
2016-Jun-19 23:33N 46°19' W 124°20'1 1.5
2016-Jun-19 22:33N 46°18' W 124°19'7 7.1
2016-Jun-19 21:33N 46°14' W 124°10'7 6.9
2016-Jun-19 20:34N 46°15' W 124°00'7 6.7
2016-Jun-19 19:33N 46°11' W 123°52'0 0.4
2016-Jun-19 18:33N 46°11' W 123°51'2 2.3
2016-Jun-19 17:33N 46°12' W 123°48'0 0.1
2016-Jun-19 16:33N 46°12' W 123°48'0 0.0
2016-Jun-19 15:33N 46°12' W 123°48'0 0.0
2016-Jun-19 14:33N 46°12' W 123°48'0 0.0
2016-Jun-19 13:33N 46°12' W 123°48'0 0.0
2016-Jun-19 12:33N 46°12' W 123°48'0 0.0
2016-Jun-19 11:33N 46°12' W 123°48'0 0.0
2016-Jun-19 10:33N 46°12' W 123°48'0 0.0
2016-Jun-19 09:33N 46°12' W 123°48'0 0.0
2016-Jun-19 08:33N 46°12' W 123°48'0 0.0
2016-Jun-19 07:33N 46°12' W 123°48'0 0.0
2016-Jun-19 06:33N 46°12' W 123°48'0 0.0
2016-Jun-19 05:30N 46°12' W 123°48'0 0.0
2016-Jun-19 04:30N 46°12' W 123°48'0 0.0
2016-Jun-19 03:33N 46°12' W 123°48'0 0.0
2016-Jun-19 02:33N 46°12' W 123°48'0 0.0
2016-Jun-19 01:30N 46°12' W 123°48'0 0.0
2016-Jun-19 00:33N 46°12' W 123°48'0 0.0
2016-Jun-18 23:33N 46°12' W 123°48'0 0.0
2016-Jun-18 22:33N 46°12' W 123°48'0 0.0
2016-Jun-18 21:33N 46°12' W 123°48'0 0.0
2016-Jun-18 20:33N 46°12' W 123°48'0 0.0
2016-Jun-18 19:33N 46°12' W 123°48'0 0.0
2016-Jun-18 18:33N 46°12' W 123°48'0 0.0
2016-Jun-18 17:33N 46°12' W 123°48'0 0.0
2016-Jun-18 16:33N 46°12' W 123°48'0 0.0
2016-Jun-18 15:33N 46°12' W 123°48'0 0.0
2016-Jun-18 14:33N 46°12' W 123°48'0 0.0
2016-Jun-18 13:30N 46°12' W 123°48'0 0.0
2016-Jun-18 12:30N 46°12' W 123°48'0 0.0
2016-Jun-18 11:33N 46°12' W 123°48'0 0.0
2016-Jun-18 10:33N 46°12' W 123°48'0 0.0
2016-Jun-18 09:33N 46°12' W 123°48'0 0.0
2016-Jun-18 08:33N 46°12' W 123°48'0 0.0
2016-Jun-18 07:33N 46°12' W 123°48'0 0.0
2016-Jun-18 06:33N 46°12' W 123°48'0 0.0
2016-Jun-18 05:33N 46°12' W 123°48'0 0.0
2016-Jun-18 04:33N 46°12' W 123°48'  

Dump ship's entire track history